createdAt,value
2022-12-09T00:03:41.842Z,8.25
2022-12-09T00:08:44.324Z,8.77
2022-12-09T00:13:50.220Z,8.00
2022-12-09T00:18:52.489Z,8.45
2022-12-09T00:23:55.735Z,8.63
2022-12-09T00:28:58.317Z,9.00
2022-12-09T00:34:03.551Z,8.77
2022-12-09T00:39:05.408Z,8.98
2022-12-09T00:44:07.337Z,9.00
2022-12-09T00:49:11.007Z,9.25
2022-12-09T00:54:12.996Z,9.23
2022-12-09T00:59:14.790Z,9.50
2022-12-09T01:04:17.345Z,9.80
2022-12-09T01:09:19.254Z,10.15
2022-12-09T01:14:21.244Z,9.75
2022-12-09T01:19:23.067Z,10.25
2022-12-09T01:24:24.770Z,10.93
2022-12-09T01:29:26.519Z,10.80
2022-12-09T01:34:28.273Z,10.05
2022-12-09T01:39:29.998Z,10.18
2022-12-09T01:44:33.937Z,10.55
2022-12-09T01:49:42.452Z,10.63
2022-12-09T01:54:45.969Z,10.55
2022-12-09T01:59:48.018Z,9.40
2022-12-09T02:04:50.784Z,9.60
2022-12-09T02:09:53.516Z,10.40
2022-12-09T02:15:09.637Z,10.30
2022-12-09T02:20:23.179Z,10.30
2022-12-09T02:25:42.172Z,10.40
2022-12-09T02:31:22.640Z,10.13
2022-12-09T02:36:29.015Z,11.30
2022-12-09T02:41:35.530Z,10.02
2022-12-09T02:46:39.646Z,11.02
2022-12-09T02:51:44.252Z,10.05
2022-12-09T02:56:53.496Z,11.27
2022-12-09T03:02:20.000Z,10.80
2022-12-09T03:07:24.695Z,11.57
2022-12-09T03:12:33.163Z,11.50
2022-12-09T03:17:37.005Z,11.85
2022-12-09T03:22:43.505Z,11.05
2022-12-09T03:27:48.119Z,10.63
2022-12-09T03:32:51.056Z,10.13
2022-12-09T03:37:53.897Z,10.27
2022-12-09T03:43:07.215Z,10.63
2022-12-09T03:48:10.940Z,10.48
2022-12-09T03:53:19.871Z,10.27
2022-12-09T03:58:21.938Z,10.57
2022-12-09T04:03:23.791Z,9.32
2022-12-09T04:08:25.948Z,8.00
2022-12-09T04:13:27.694Z,8.77
2022-12-09T04:18:29.769Z,8.57
2022-12-09T04:23:31.667Z,7.65
2022-12-09T04:28:33.617Z,7.78
2022-12-09T04:33:35.275Z,7.90
2022-12-09T04:38:37.081Z,9.10
2022-12-09T04:43:38.915Z,8.90
2022-12-09T04:48:41.241Z,9.15
2022-12-09T04:53:43.431Z,8.95
2022-12-09T04:58:45.616Z,9.48
2022-12-09T05:03:54.285Z,9.10
2022-12-09T05:08:56.499Z,8.82
2022-12-09T05:13:58.534Z,9.38
2022-12-09T05:19:00.647Z,9.57
2022-12-09T05:24:03.240Z,9.73
2022-12-09T05:29:05.322Z,8.93
2022-12-09T05:34:07.714Z,10.15
2022-12-09T05:39:09.967Z,10.45
2022-12-09T05:44:12.293Z,9.93
2022-12-09T05:49:14.461Z,11.05
2022-12-09T05:54:16.498Z,11.07
2022-12-09T05:59:18.434Z,10.13
2022-12-09T06:04:20.330Z,11.80
2022-12-09T06:09:22.646Z,10.35
2022-12-09T06:14:24.703Z,9.25
2022-12-09T06:19:26.771Z,8.60
2022-12-09T06:24:28.660Z,9.48
2022-12-09T06:29:30.724Z,8.30
2022-12-09T06:34:32.806Z,8.98
2022-12-09T06:39:34.814Z,9.00
2022-12-09T06:44:37.277Z,9.52
2022-12-09T06:49:39.266Z,13.68
2022-12-09T06:54:41.388Z,9.23
2022-12-09T06:59:43.485Z,8.55
2022-12-09T07:04:45.414Z,10.30
2022-12-09T07:09:47.908Z,8.48
2022-12-09T07:14:49.782Z,9.45
2022-12-09T07:19:51.915Z,7.90
2022-12-09T07:24:54.148Z,8.95
2022-12-09T07:29:57.327Z,9.57
2022-12-09T07:34:59.475Z,9.02
2022-12-09T07:40:01.839Z,8.90
2022-12-09T07:45:04.543Z,9.10
2022-12-09T07:50:07.638Z,8.85
2022-12-09T07:55:10.607Z,8.50
2022-12-09T08:00:13.471Z,13.80
2022-12-09T08:05:16.158Z,10.82
2022-12-09T08:10:18.312Z,10.10
2022-12-09T08:15:20.870Z,9.55
2022-12-09T08:20:28.784Z,10.70
2022-12-09T08:25:31.541Z,9.32
2022-12-09T08:30:33.599Z,9.43
2022-12-09T08:35:38.010Z,9.27
2022-12-09T08:40:40.186Z,9.85
2022-12-09T08:45:42.390Z,10.38
2022-12-09T08:50:44.693Z,10.18
2022-12-09T08:55:47.008Z,9.95
2022-12-09T09:00:49.003Z,10.05
2022-12-09T09:05:51.310Z,10.13
2022-12-09T09:10:53.569Z,9.93
2022-12-09T09:15:55.592Z,10.90
2022-12-09T09:20:59.597Z,10.15
2022-12-09T09:26:03.357Z,9.52
2022-12-09T09:31:07.538Z,10.05
2022-12-09T09:36:13.604Z,10.63
2022-12-09T09:41:40.175Z,9.05
2022-12-09T09:46:46.116Z,8.85
2022-12-09T09:51:48.497Z,9.20
2022-12-09T09:56:58.742Z,9.45
2022-12-09T10:02:12.913Z,9.75
2022-12-09T10:07:29.148Z,10.07
2022-12-09T10:13:06.938Z,10.32
2022-12-09T10:18:11.462Z,11.10
2022-12-09T10:23:15.919Z,11.30
2022-12-09T10:28:22.728Z,11.00
2022-12-09T10:33:35.357Z,11.07
2022-12-09T10:38:41.179Z,10.93
2022-12-09T10:43:44.171Z,10.48
2022-12-09T10:48:50.240Z,10.40
2022-12-09T10:54:10.853Z,9.98
2022-12-09T10:59:32.147Z,8.80
2022-12-09T11:04:38.614Z,9.65
2022-12-09T11:09:59.013Z,9.55
2022-12-09T11:15:30.488Z,10.93
2022-12-09T11:20:34.605Z,9.05
2022-12-09T11:25:37.719Z,10.05
2022-12-09T11:36:29.801Z,9.93
2022-12-09T11:41:51.551Z,9.85
2022-12-09T11:47:13.189Z,8.90
2022-12-09T11:52:17.804Z,9.50
2022-12-09T11:57:33.112Z,10.38
2022-12-09T12:02:44.660Z,10.15
2022-12-09T12:08:01.986Z,10.18
2022-12-09T12:13:24.867Z,8.77
2022-12-09T12:18:32.655Z,8.95
2022-12-09T12:23:57.446Z,8.68
2022-12-09T12:29:38.257Z,9.00
2022-12-09T12:34:39.891Z,9.00
2022-12-09T12:40:02.978Z,8.80
2022-12-09T12:45:26.578Z,9.25
2022-12-09T12:50:40.125Z,10.80
2022-12-09T12:56:05.011Z,9.20
2022-12-09T13:01:19.214Z,8.95
2022-12-09T13:06:30.509Z,9.07
2022-12-09T13:11:39.479Z,9.30
2022-12-09T13:16:43.560Z,7.63
2022-12-09T13:21:46.389Z,7.63
2022-12-09T13:27:05.499Z,8.68
2022-12-09T13:32:43.979Z,8.02
2022-12-09T13:37:45.593Z,9.27
2022-12-09T13:43:03.557Z,8.30
2022-12-09T13:48:16.556Z,8.77
2022-12-09T13:53:19.024Z,8.13
2022-12-09T13:58:41.061Z,8.60
2022-12-09T14:04:13.629Z,9.05
2022-12-09T14:09:44.779Z,9.40
2022-12-09T14:15:01.545Z,8.88
2022-12-09T14:20:19.185Z,9.43
2022-12-09T14:25:28.288Z,8.68
2022-12-09T14:30:29.928Z,8.40
2022-12-09T14:35:49.065Z,9.40
2022-12-09T14:41:05.747Z,9.55
2022-12-09T14:46:32.770Z,8.90
2022-12-09T14:51:38.703Z,8.15
2022-12-09T14:56:46.670Z,8.85
2022-12-09T15:01:56.345Z,9.55
2022-12-09T15:07:20.956Z,8.80
2022-12-09T15:12:34.736Z,9.60
2022-12-09T15:17:43.580Z,8.82
2022-12-09T15:22:53.850Z,10.27
2022-12-09T15:28:05.147Z,9.60
2022-12-09T15:33:14.048Z,10.20
2022-12-09T15:38:16.067Z,9.60
2022-12-09T15:43:17.830Z,10.18
2022-12-09T15:48:23.509Z,9.55
2022-12-09T15:53:30.748Z,10.75
2022-12-09T15:58:38.917Z,10.63
2022-12-09T16:03:40.781Z,10.82
2022-12-09T16:08:45.398Z,10.63
2022-12-09T16:14:00.697Z,11.38
2022-12-09T16:19:02.414Z,11.23
2022-12-09T16:24:23.282Z,9.68
2022-12-09T16:29:32.766Z,11.18
2022-12-09T16:34:34.453Z,9.80
2022-12-09T16:39:40.484Z,10.48
2022-12-09T16:44:42.370Z,10.82
2022-12-09T16:49:48.470Z,10.95
2022-12-09T16:54:50.803Z,11.10
2022-12-09T16:59:53.511Z,10.93
2022-12-09T17:04:55.354Z,9.80
2022-12-09T17:09:57.047Z,10.25
2022-12-09T17:14:58.681Z,10.60
2022-12-09T17:20:00.491Z,11.18
2022-12-09T17:25:02.421Z,10.77
2022-12-09T17:30:05.212Z,11.15
2022-12-09T17:35:12.316Z,11.10
2022-12-09T17:40:14.345Z,11.30
2022-12-09T17:45:16.033Z,11.57
2022-12-09T17:50:17.821Z,11.00
2022-12-09T17:55:19.559Z,11.60
2022-12-09T18:00:21.348Z,11.65
2022-12-09T18:05:23.088Z,12.43
2022-12-09T18:10:24.925Z,12.10
2022-12-09T18:15:27.304Z,11.82
2022-12-09T18:20:28.991Z,11.80
2022-12-09T18:25:30.727Z,11.68
2022-12-09T18:30:32.627Z,12.65
2022-12-09T18:35:34.675Z,12.27
2022-12-09T18:40:59.642Z,13.10
2022-12-09T18:46:07.397Z,12.70
2022-12-09T18:51:21.125Z,12.27
2022-12-09T18:56:23.001Z,11.00
2022-12-09T19:01:30.137Z,11.43
2022-12-09T19:06:35.456Z,12.07
2022-12-09T19:11:38.758Z,12.30
2022-12-09T19:16:41.096Z,11.18
2022-12-09T19:21:43.185Z,12.82
2022-12-09T19:26:45.233Z,11.57
2022-12-09T19:31:49.426Z,11.65
2022-12-09T19:36:52.598Z,11.80
2022-12-09T19:41:54.299Z,11.88
2022-12-09T19:46:56.055Z,10.70
2022-12-09T19:51:59.780Z,11.63
2022-12-09T19:57:01.532Z,11.50
2022-12-09T20:02:03.428Z,12.02
2022-12-09T20:07:08.161Z,11.02
2022-12-09T20:12:10.159Z,10.95
2022-12-09T20:17:11.899Z,12.88
2022-12-09T20:22:13.630Z,12.75
2022-12-09T20:27:15.276Z,11.23
2022-12-09T20:32:16.953Z,12.68
2022-12-09T20:37:18.657Z,13.68
2022-12-09T20:42:20.324Z,12.82
2022-12-09T20:47:22.055Z,12.23
2022-12-09T20:52:24.593Z,13.63
2022-12-09T20:57:26.281Z,14.20
2022-12-09T21:02:28.065Z,13.77
2022-12-09T21:07:29.798Z,12.32
2022-12-09T21:12:31.480Z,13.85
2022-12-09T21:17:33.182Z,13.43
2022-12-09T21:22:35.328Z,13.13
2022-12-09T21:27:37.067Z,13.18
2022-12-09T21:32:39.420Z,13.73
2022-12-09T21:37:41.170Z,14.32
2022-12-09T21:42:42.870Z,13.75
2022-12-09T21:47:45.787Z,13.10
2022-12-09T21:52:47.474Z,13.55
2022-12-09T21:57:49.185Z,13.27
2022-12-09T22:02:54.427Z,13.18
2022-12-09T22:07:56.186Z,13.68
2022-12-09T22:12:57.909Z,13.60
2022-12-09T22:17:59.653Z,13.45
2022-12-09T22:23:01.729Z,12.40
2022-12-09T22:28:03.662Z,13.63
2022-12-09T22:33:05.363Z,13.10
2022-12-09T22:38:13.002Z,17.38
2022-12-09T22:43:16.355Z,12.98
2022-12-09T22:48:18.034Z,14.05
2022-12-09T22:53:19.752Z,12.88
2022-12-09T22:58:21.464Z,12.65
2022-12-09T23:03:23.497Z,12.95
2022-12-09T23:08:25.242Z,12.98
2022-12-09T23:13:27.093Z,12.85
2022-12-09T23:18:33.487Z,12.55
2022-12-09T23:23:35.165Z,12.00
2022-12-09T23:28:38.308Z,12.23
2022-12-09T23:33:41.802Z,12.30
2022-12-09T23:38:43.813Z,12.20
2022-12-09T23:43:47.171Z,12.20
2022-12-09T23:48:51.020Z,12.13
2022-12-09T23:53:55.448Z,12.73
2022-12-09T23:59:00.114Z,13.15
